sensor_id;sensor_type;location;lat;lon;timestamp;P1;durP1;ratioP1;P2;durP2;ratioP2
42964;SDS011;28604;51.204;22.552;2024-02-23T00:00:12;3.75;;;3.13;;
42964;SDS011;28604;51.204;22.552;2024-02-23T00:02:58;3.58;;;3.28;;
42964;SDS011;28604;51.204;22.552;2024-02-23T00:05:25;5.22;;;3.75;;
42964;SDS011;28604;51.204;22.552;2024-02-23T00:07:50;3.00;;;2.80;;
42964;SDS011;28604;51.204;22.552;2024-02-23T00:10:16;3.28;;;3.08;;
42964;SDS011;28604;51.204;22.552;2024-02-23T00:12:42;3.53;;;3.30;;
42964;SDS011;28604;51.204;22.552;2024-02-23T00:15:09;3.15;;;2.95;;
42964;SDS011;28604;51.204;22.552;2024-02-23T00:17:35;4.05;;;3.65;;
42964;SDS011;28604;51.204;22.552;2024-02-23T00:20:01;3.45;;;3.25;;
42964;SDS011;28604;51.204;22.552;2024-02-23T00:22:27;4.40;;;3.28;;
42964;SDS011;28604;51.204;22.552;2024-02-23T00:24:53;3.15;;;2.95;;
42964;SDS011;28604;51.204;22.552;2024-02-23T00:27:19;4.10;;;3.70;;
42964;SDS011;28604;51.204;22.552;2024-02-23T00:29:45;3.92;;;3.63;;
42964;SDS011;28604;51.204;22.552;2024-02-23T00:32:11;3.20;;;2.90;;
42964;SDS011;28604;51.204;22.552;2024-02-23T00:34:38;3.63;;;3.28;;
42964;SDS011;28604;51.204;22.552;2024-02-23T00:37:04;3.63;;;3.30;;
42964;SDS011;28604;51.204;22.552;2024-02-23T00:39:31;3.40;;;3.20;;
42964;SDS011;28604;51.204;22.552;2024-02-23T00:41:57;3.72;;;3.42;;
42964;SDS011;28604;51.204;22.552;2024-02-23T00:44:23;4.10;;;3.00;;
42964;SDS011;28604;51.204;22.552;2024-02-23T00:46:49;3.10;;;2.97;;
42964;SDS011;28604;51.204;22.552;2024-02-23T00:49:15;2.90;;;2.70;;
42964;SDS011;28604;51.204;22.552;2024-02-23T00:51:42;2.78;;;2.42;;
42964;SDS011;28604;51.204;22.552;2024-02-23T00:54:08;3.80;;;3.33;;
42964;SDS011;28604;51.204;22.552;2024-02-23T00:56:34;3.13;;;2.92;;
42964;SDS011;28604;51.204;22.552;2024-02-23T00:59:01;4.28;;;3.33;;
42964;SDS011;28604;51.204;22.552;2024-02-23T01:01:27;4.25;;;3.55;;
42964;SDS011;28604;51.204;22.552;2024-02-23T01:03:54;3.17;;;2.95;;
42964;SDS011;28604;51.204;22.552;2024-02-23T01:06:20;3.10;;;2.85;;
42964;SDS011;28604;51.204;22.552;2024-02-23T01:08:46;2.95;;;2.67;;
42964;SDS011;28604;51.204;22.552;2024-02-23T01:11:12;5.43;;;3.75;;
42964;SDS011;28604;51.204;22.552;2024-02-23T01:13:38;3.05;;;2.78;;
42964;SDS011;28604;51.204;22.552;2024-02-23T01:16:04;3.28;;;3.08;;
42964;SDS011;28604;51.204;22.552;2024-02-23T01:18:31;4.07;;;3.33;;
42964;SDS011;28604;51.204;22.552;2024-02-23T01:20:57;3.00;;;2.80;;
42964;SDS011;28604;51.204;22.552;2024-02-23T01:23:23;2.67;;;2.50;;
42964;SDS011;28604;51.204;22.552;2024-02-23T01:25:49;5.28;;;2.95;;
42964;SDS011;28604;51.204;22.552;2024-02-23T01:28:15;3.13;;;2.70;;
42964;SDS011;28604;51.204;22.552;2024-02-23T01:30:41;4.40;;;3.03;;
42964;SDS011;28604;51.204;22.552;2024-02-23T01:33:07;2.42;;;2.33;;
42964;SDS011;28604;51.204;22.552;2024-02-23T01:35:33;3.33;;;2.70;;
42964;SDS011;28604;51.204;22.552;2024-02-23T01:37:59;3.00;;;2.80;;
42964;SDS011;28604;51.204;22.552;2024-02-23T01:40:25;2.85;;;2.42;;
42964;SDS011;28604;51.204;22.552;2024-02-23T01:43:01;3.05;;;2.72;;
42964;SDS011;28604;51.204;22.552;2024-02-23T01:45:28;2.58;;;2.38;;
42964;SDS011;28604;51.204;22.552;2024-02-23T01:47:56;2.70;;;2.58;;
42964;SDS011;28604;51.204;22.552;2024-02-23T01:50:26;2.78;;;2.58;;
42964;SDS011;28604;51.204;22.552;2024-02-23T01:52:53;2.70;;;2.60;;
42964;SDS011;28604;51.204;22.552;2024-02-23T01:55:20;3.20;;;2.70;;
42964;SDS011;28604;51.204;22.552;2024-02-23T01:57:47;2.50;;;2.35;;
42964;SDS011;28604;51.204;22.552;2024-02-23T02:00:15;3.05;;;2.78;;
42964;SDS011;28604;51.204;22.552;2024-02-23T02:02:49;4.38;;;3.03;;
42964;SDS011;28604;51.204;22.552;2024-02-23T02:05:16;2.47;;;2.38;;
42964;SDS011;28604;51.204;22.552;2024-02-23T02:07:42;2.35;;;2.25;;
42964;SDS011;28604;51.204;22.552;2024-02-23T02:10:09;3.03;;;2.83;;
42964;SDS011;28604;51.204;22.552;2024-02-23T02:12:35;3.05;;;2.67;;
42964;SDS011;28604;51.204;22.552;2024-02-23T02:15:02;2.75;;;2.58;;
42964;SDS011;28604;51.204;22.552;2024-02-23T02:17:28;2.90;;;2.60;;
42964;SDS011;28604;51.204;22.552;2024-02-23T02:19:54;2.03;;;1.98;;
42964;SDS011;28604;51.204;22.552;2024-02-23T02:22:21;2.72;;;2.25;;
42964;SDS011;28604;51.204;22.552;2024-02-23T02:24:47;2.60;;;2.40;;
42964;SDS011;28604;51.204;22.552;2024-02-23T02:27:13;2.50;;;2.40;;
42964;SDS011;28604;51.204;22.552;2024-02-23T02:29:40;2.58;;;2.38;;
42964;SDS011;28604;51.204;22.552;2024-02-23T02:32:06;2.88;;;2.67;;
42964;SDS011;28604;51.204;22.552;2024-02-23T02:34:32;2.50;;;2.40;;
42964;SDS011;28604;51.204;22.552;2024-02-23T02:37:00;3.20;;;2.60;;
42964;SDS011;28604;51.204;22.552;2024-02-23T02:39:27;3.17;;;2.88;;
42964;SDS011;28604;51.204;22.552;2024-02-23T02:41:53;3.28;;;2.78;;
42964;SDS011;28604;51.204;22.552;2024-02-23T02:44:19;2.75;;;2.50;;
42964;SDS011;28604;51.204;22.552;2024-02-23T02:46:45;4.00;;;2.70;;
42964;SDS011;28604;51.204;22.552;2024-02-23T02:49:11;3.03;;;2.75;;
42964;SDS011;28604;51.204;22.552;2024-02-23T02:51:37;2.97;;;2.75;;
42964;SDS011;28604;51.204;22.552;2024-02-23T02:54:04;3.30;;;3.08;;
42964;SDS011;28604;51.204;22.552;2024-02-23T02:56:30;3.00;;;2.80;;
42964;SDS011;28604;51.204;22.552;2024-02-23T02:58:56;2.88;;;2.70;;
42964;SDS011;28604;51.204;22.552;2024-02-23T03:01:22;2.90;;;2.70;;
42964;SDS011;28604;51.204;22.552;2024-02-23T03:03:48;4.22;;;2.88;;
42964;SDS011;28604;51.204;22.552;2024-02-23T03:06:14;3.42;;;3.13;;
42964;SDS011;28604;51.204;22.552;2024-02-23T03:08:43;3.50;;;2.83;;
42964;SDS011;28604;51.204;22.552;2024-02-23T03:11:09;3.05;;;2.85;;
42964;SDS011;28604;51.204;22.552;2024-02-23T03:13:35;4.10;;;2.55;;
42964;SDS011;28604;51.204;22.552;2024-02-23T03:16:01;3.92;;;3.00;;
42964;SDS011;28604;51.204;22.552;2024-02-23T03:18:27;3.53;;;3.15;;
42964;SDS011;28604;51.204;22.552;2024-02-23T03:20:53;3.78;;;2.85;;
42964;SDS011;28604;51.204;22.552;2024-02-23T03:23:20;2.97;;;2.78;;
42964;SDS011;28604;51.204;22.552;2024-02-23T03:25:46;2.65;;;2.55;;
42964;SDS011;28604;51.204;22.552;2024-02-23T03:28:12;2.53;;;2.40;;
42964;SDS011;28604;51.204;22.552;2024-02-23T03:30:38;3.72;;;3.15;;
42964;SDS011;28604;51.204;22.552;2024-02-23T03:33:04;3.22;;;2.75;;
42964;SDS011;28604;51.204;22.552;2024-02-23T03:35:30;3.17;;;2.95;;
42964;SDS011;28604;51.204;22.552;2024-02-23T03:37:56;2.97;;;2.75;;
42964;SDS011;28604;51.204;22.552;2024-02-23T03:40:22;3.28;;;3.08;;
42964;SDS011;28604;51.204;22.552;2024-02-23T03:42:48;3.17;;;2.97;;
42964;SDS011;28604;51.204;22.552;2024-02-23T03:45:14;3.25;;;2.97;;
42964;SDS011;28604;51.204;22.552;2024-02-23T03:47:40;3.90;;;3.60;;
42964;SDS011;28604;51.204;22.552;2024-02-23T03:50:06;3.40;;;3.13;;
42964;SDS011;28604;51.204;22.552;2024-02-23T03:52:33;3.55;;;3.25;;
42964;SDS011;28604;51.204;22.552;2024-02-23T03:54:59;5.07;;;3.97;;
42964;SDS011;28604;51.204;22.552;2024-02-23T03:57:25;4.43;;;4.03;;
42964;SDS011;28604;51.204;22.552;2024-02-23T03:59:52;3.70;;;2.88;;
42964;SDS011;28604;51.204;22.552;2024-02-23T04:02:19;4.07;;;3.65;;
42964;SDS011;28604;51.204;22.552;2024-02-23T04:04:45;3.30;;;3.10;;
42964;SDS011;28604;51.204;22.552;2024-02-23T04:07:11;3.75;;;3.45;;
42964;SDS011;28604;51.204;22.552;2024-02-23T04:09:37;3.22;;;2.95;;
42964;SDS011;28604;51.204;22.552;2024-02-23T04:12:03;3.30;;;3.00;;
42964;SDS011;28604;51.204;22.552;2024-02-23T04:14:29;4.50;;;3.20;;
42964;SDS011;28604;51.204;22.552;2024-02-23T04:16:55;3.53;;;3.22;;
42964;SDS011;28604;51.204;22.552;2024-02-23T04:19:21;3.30;;;3.05;;
42964;SDS011;28604;51.204;22.552;2024-02-23T04:21:47;3.55;;;3.25;;
42964;SDS011;28604;51.204;22.552;2024-02-23T04:24:13;3.65;;;2.97;;
42964;SDS011;28604;51.204;22.552;2024-02-23T04:26:39;3.28;;;2.97;;
42964;SDS011;28604;51.204;22.552;2024-02-23T04:29:05;3.67;;;3.42;;
42964;SDS011;28604;51.204;22.552;2024-02-23T04:31:31;4.10;;;3.42;;
42964;SDS011;28604;51.204;22.552;2024-02-23T04:33:56;4.80;;;3.35;;
42964;SDS011;28604;51.204;22.552;2024-02-23T04:36:23;3.30;;;3.10;;
42964;SDS011;28604;51.204;22.552;2024-02-23T04:38:48;3.42;;;3.15;;
42964;SDS011;28604;51.204;22.552;2024-02-23T04:41:15;3.28;;;3.00;;
42964;SDS011;28604;51.204;22.552;2024-02-23T04:43:46;3.73;;;3.13;;
42964;SDS011;28604;51.204;22.552;2024-02-23T04:46:12;4.00;;;2.90;;
42964;SDS011;28604;51.204;22.552;2024-02-23T04:48:38;5.05;;;3.42;;
42964;SDS011;28604;51.204;22.552;2024-02-23T04:51:05;3.65;;;3.33;;
42964;SDS011;28604;51.204;22.552;2024-02-23T04:53:35;2.97;;;2.72;;
42964;SDS011;28604;51.204;22.552;2024-02-23T04:56:02;4.03;;;3.35;;
42964;SDS011;28604;51.204;22.552;2024-02-23T04:58:29;2.67;;;2.55;;
42964;SDS011;28604;51.204;22.552;2024-02-23T05:00:55;4.43;;;4.03;;
42964;SDS011;28604;51.204;22.552;2024-02-23T05:03:20;5.68;;;3.53;;
42964;SDS011;28604;51.204;22.552;2024-02-23T05:05:47;3.10;;;2.80;;
42964;SDS011;28604;51.204;22.552;2024-02-23T05:08:14;3.88;;;2.65;;
42964;SDS011;28604;51.204;22.552;2024-02-23T05:10:41;3.40;;;3.10;;
42964;SDS011;28604;51.204;22.552;2024-02-23T05:13:06;5.57;;;3.25;;
42964;SDS011;28604;51.204;22.552;2024-02-23T05:15:33;4.97;;;2.97;;
42964;SDS011;28604;51.204;22.552;2024-02-23T05:17:58;3.25;;;3.05;;
42964;SDS011;28604;51.204;22.552;2024-02-23T05:20:25;3.50;;;3.20;;
42964;SDS011;28604;51.204;22.552;2024-02-23T05:22:50;3.08;;;2.78;;
42964;SDS011;28604;51.204;22.552;2024-02-23T05:25:17;5.57;;;3.05;;
42964;SDS011;28604;51.204;22.552;2024-02-23T05:27:43;3.25;;;2.80;;
42964;SDS011;28604;51.204;22.552;2024-02-23T05:30:10;2.78;;;2.60;;
42964;SDS011;28604;51.204;22.552;2024-02-23T05:32:36;4.40;;;2.78;;
42964;SDS011;28604;51.204;22.552;2024-02-23T05:35:02;4.65;;;2.65;;
42964;SDS011;28604;51.204;22.552;2024-02-23T05:37:28;3.20;;;2.85;;
42964;SDS011;28604;51.204;22.552;2024-02-23T05:39:55;3.78;;;2.72;;
42964;SDS011;28604;51.204;22.552;2024-02-23T05:42:20;3.15;;;2.92;;
42964;SDS011;28604;51.204;22.552;2024-02-23T05:44:47;4.70;;;2.60;;
42964;SDS011;28604;51.204;22.552;2024-02-23T05:47:13;3.38;;;2.97;;
42964;SDS011;28604;51.204;22.552;2024-02-23T05:49:40;2.92;;;2.72;;
42964;SDS011;28604;51.204;22.552;2024-02-23T05:52:06;4.82;;;2.80;;
42964;SDS011;28604;51.204;22.552;2024-02-23T05:54:32;2.88;;;2.25;;
42964;SDS011;28604;51.204;22.552;2024-02-23T05:56:58;3.40;;;3.10;;
42964;SDS011;28604;51.204;22.552;2024-02-23T05:59:24;3.25;;;2.58;;
42964;SDS011;28604;51.204;22.552;2024-02-23T06:01:50;3.00;;;2.80;;
42964;SDS011;28604;51.204;22.552;2024-02-23T06:04:18;3.17;;;2.40;;
42964;SDS011;28604;51.204;22.552;2024-02-23T06:06:44;3.15;;;2.40;;
42964;SDS011;28604;51.204;22.552;2024-02-23T06:09:10;3.88;;;2.40;;
42964;SDS011;28604;51.204;22.552;2024-02-23T06:11:36;3.63;;;3.33;;
42964;SDS011;28604;51.204;22.552;2024-02-23T06:14:02;2.55;;;2.40;;
42964;SDS011;28604;51.204;22.552;2024-02-23T06:16:28;2.40;;;2.28;;
42964;SDS011;28604;51.204;22.552;2024-02-23T06:18:54;2.60;;;2.30;;
42964;SDS011;28604;51.204;22.552;2024-02-23T06:21:20;2.72;;;2.53;;
42964;SDS011;28604;51.204;22.552;2024-02-23T06:23:46;5.43;;;2.58;;
42964;SDS011;28604;51.204;22.552;2024-02-23T06:26:12;2.80;;;2.60;;
42964;SDS011;28604;51.204;22.552;2024-02-23T06:28:38;2.28;;;2.10;;
42964;SDS011;28604;51.204;22.552;2024-02-23T06:31:06;2.45;;;2.35;;
42964;SDS011;28604;51.204;22.552;2024-02-23T06:33:33;2.88;;;2.20;;
42964;SDS011;28604;51.204;22.552;2024-02-23T06:35:59;2.47;;;2.28;;
42964;SDS011;28604;51.204;22.552;2024-02-23T06:38:26;5.03;;;2.25;;
42964;SDS011;28604;51.204;22.552;2024-02-23T06:40:53;2.42;;;2.30;;
42964;SDS011;28604;51.204;22.552;2024-02-23T06:43:21;2.30;;;2.17;;
42964;SDS011;28604;51.204;22.552;2024-02-23T06:45:48;2.67;;;2.45;;
42964;SDS011;28604;51.204;22.552;2024-02-23T06:48:14;2.83;;;2.35;;
42964;SDS011;28604;51.204;22.552;2024-02-23T06:50:40;3.13;;;1.90;;
42964;SDS011;28604;51.204;22.552;2024-02-23T06:53:06;4.70;;;2.47;;
42964;SDS011;28604;51.204;22.552;2024-02-23T06:55:33;2.63;;;2.42;;
42964;SDS011;28604;51.204;22.552;2024-02-23T06:58:00;3.42;;;2.50;;
42964;SDS011;28604;51.204;22.552;2024-02-23T07:00:26;3.40;;;2.38;;
42964;SDS011;28604;51.204;22.552;2024-02-23T07:02:52;2.10;;;2.00;;
42964;SDS011;28604;51.204;22.552;2024-02-23T07:05:18;2.17;;;1.98;;
42964;SDS011;28604;51.204;22.552;2024-02-23T07:07:44;2.60;;;2.40;;
42964;SDS011;28604;51.204;22.552;2024-02-23T07:10:10;2.55;;;2.35;;
42964;SDS011;28604;51.204;22.552;2024-02-23T07:12:37;3.28;;;2.72;;
42964;SDS011;28604;51.204;22.552;2024-02-23T07:15:03;2.58;;;2.38;;
42964;SDS011;28604;51.204;22.552;2024-02-23T07:17:30;2.55;;;2.17;;
42964;SDS011;28604;51.204;22.552;2024-02-23T07:19:55;2.10;;;2.00;;
42964;SDS011;28604;51.204;22.552;2024-02-23T07:22:31;3.75;;;2.75;;
42964;SDS011;28604;51.204;22.552;2024-02-23T07:24:57;3.95;;;2.58;;
42964;SDS011;28604;51.204;22.552;2024-02-23T07:27:23;2.92;;;2.70;;
42964;SDS011;28604;51.204;22.552;2024-02-23T07:29:50;5.32;;;2.40;;
42964;SDS011;28604;51.204;22.552;2024-02-23T07:32:16;2.95;;;2.75;;
42964;SDS011;28604;51.204;22.552;2024-02-23T07:34:42;3.08;;;2.55;;
42964;SDS011;28604;51.204;22.552;2024-02-23T07:37:08;2.75;;;2.55;;
42964;SDS011;28604;51.204;22.552;2024-02-23T07:39:34;2.78;;;2.58;;
42964;SDS011;28604;51.204;22.552;2024-02-23T07:42:01;2.75;;;2.47;;
42964;SDS011;28604;51.204;22.552;2024-02-23T07:44:27;4.22;;;2.47;;
42964;SDS011;28604;51.204;22.552;2024-02-23T07:46:54;5.60;;;2.75;;
42964;SDS011;28604;51.204;22.552;2024-02-23T07:49:21;2.67;;;2.38;;
42964;SDS011;28604;51.204;22.552;2024-02-23T07:51:47;3.40;;;2.75;;
42964;SDS011;28604;51.204;22.552;2024-02-23T07:54:13;2.30;;;2.20;;
42964;SDS011;28604;51.204;22.552;2024-02-23T07:56:40;3.22;;;2.92;;
42964;SDS011;28604;51.204;22.552;2024-02-23T07:59:06;2.60;;;2.50;;
42964;SDS011;28604;51.204;22.552;2024-02-23T08:01:32;2.38;;;2.22;;
42964;SDS011;28604;51.204;22.552;2024-02-23T08:03:58;3.80;;;3.05;;
42964;SDS011;28604;51.204;22.552;2024-02-23T08:06:24;4.78;;;2.65;;
42964;SDS011;28604;51.204;22.552;2024-02-23T08:08:51;4.70;;;2.63;;
42964;SDS011;28604;51.204;22.552;2024-02-23T08:11:19;3.17;;;2.42;;
42964;SDS011;28604;51.204;22.552;2024-02-23T08:13:45;3.13;;;2.80;;
42964;SDS011;28604;51.204;22.552;2024-02-23T08:16:11;8.13;;;3.08;;
42964;SDS011;28604;51.204;22.552;2024-02-23T08:18:37;3.42;;;2.97;;
42964;SDS011;28604;51.204;22.552;2024-02-23T08:21:03;3.83;;;3.15;;
42964;SDS011;28604;51.204;22.552;2024-02-23T08:23:31;3.22;;;2.92;;
42964;SDS011;28604;51.204;22.552;2024-02-23T08:25:57;5.38;;;2.63;;
42964;SDS011;28604;51.204;22.552;2024-02-23T08:28:23;3.35;;;3.10;;
42964;SDS011;28604;51.204;22.552;2024-02-23T08:30:50;3.38;;;3.08;;
42964;SDS011;28604;51.204;22.552;2024-02-23T08:33:15;5.10;;;2.33;;
42964;SDS011;28604;51.204;22.552;2024-02-23T08:35:42;3.05;;;2.78;;
42964;SDS011;28604;51.204;22.552;2024-02-23T08:38:08;6.45;;;3.25;;
42964;SDS011;28604;51.204;22.552;2024-02-23T08:40:34;2.85;;;2.65;;
42964;SDS011;28604;51.204;22.552;2024-02-23T08:43:01;3.10;;;2.80;;
42964;SDS011;28604;51.204;22.552;2024-02-23T08:45:27;3.03;;;2.80;;
42964;SDS011;28604;51.204;22.552;2024-02-23T08:47:53;3.00;;;2.80;;
42964;SDS011;28604;51.204;22.552;2024-02-23T08:50:19;3.33;;;3.13;;
42964;SDS011;28604;51.204;22.552;2024-02-23T08:52:45;4.03;;;3.03;;
42964;SDS011;28604;51.204;22.552;2024-02-23T08:55:12;3.40;;;3.10;;
42964;SDS011;28604;51.204;22.552;2024-02-23T08:57:37;3.45;;;3.15;;
42964;SDS011;28604;51.204;22.552;2024-02-23T09:00:04;4.18;;;3.35;;
42964;SDS011;28604;51.204;22.552;2024-02-23T09:02:31;3.53;;;3.25;;
42964;SDS011;28604;51.204;22.552;2024-02-23T09:05:04;6.60;;;3.75;;
42964;SDS011;28604;51.204;22.552;2024-02-23T09:07:30;3.58;;;3.28;;
42964;SDS011;28604;51.204;22.552;2024-02-23T09:09:56;5.40;;;3.90;;
42964;SDS011;28604;51.204;22.552;2024-02-23T09:12:23;4.22;;;3.25;;
42964;SDS011;28604;51.204;22.552;2024-02-23T09:14:50;3.40;;;3.10;;
42964;SDS011;28604;51.204;22.552;2024-02-23T09:17:15;3.17;;;2.97;;
42964;SDS011;28604;51.204;22.552;2024-02-23T09:19:42;6.75;;;4.28;;
42964;SDS011;28604;51.204;22.552;2024-02-23T09:22:08;3.72;;;3.42;;
42964;SDS011;28604;51.204;22.552;2024-02-23T09:24:34;4.22;;;3.33;;
42964;SDS011;28604;51.204;22.552;2024-02-23T09:27:00;6.22;;;3.47;;
42964;SDS011;28604;51.204;22.552;2024-02-23T09:29:26;5.78;;;3.72;;
42964;SDS011;28604;51.204;22.552;2024-02-23T09:31:52;4.07;;;3.50;;
42964;SDS011;28604;51.204;22.552;2024-02-23T09:34:18;7.50;;;4.03;;
42964;SDS011;28604;51.204;22.552;2024-02-23T09:36:44;3.67;;;3.40;;
42964;SDS011;28604;51.204;22.552;2024-02-23T09:39:10;3.70;;;3.40;;
42964;SDS011;28604;51.204;22.552;2024-02-23T09:41:36;4.57;;;3.13;;
42964;SDS011;28604;51.204;22.552;2024-02-23T09:44:04;3.72;;;3.42;;
42964;SDS011;28604;51.204;22.552;2024-02-23T09:46:33;3.72;;;3.42;;
42964;SDS011;28604;51.204;22.552;2024-02-23T09:49:01;4.90;;;3.45;;
42964;SDS011;28604;51.204;22.552;2024-02-23T09:51:28;5.03;;;3.63;;
42964;SDS011;28604;51.204;22.552;2024-02-23T09:53:56;5.00;;;3.35;;
42964;SDS011;28604;51.204;22.552;2024-02-23T09:56:23;4.05;;;3.58;;
42964;SDS011;28604;51.204;22.552;2024-02-23T09:58:59;3.97;;;3.67;;
42964;SDS011;28604;51.204;22.552;2024-02-23T10:01:30;4.40;;;3.60;;
42964;SDS011;28604;51.204;22.552;2024-02-23T10:03:59;4.85;;;3.50;;
42964;SDS011;28604;51.204;22.552;2024-02-23T10:06:26;3.38;;;3.08;;
42964;SDS011;28604;51.204;22.552;2024-02-23T10:08:56;6.65;;;3.28;;
42964;SDS011;28604;51.204;22.552;2024-02-23T10:11:22;3.22;;;3.03;;
42964;SDS011;28604;51.204;22.552;2024-02-23T10:13:49;6.15;;;3.42;;
42964;SDS011;28604;51.204;22.552;2024-02-23T10:16:19;3.58;;;3.10;;
42964;SDS011;28604;51.204;22.552;2024-02-23T10:18:46;3.65;;;3.13;;
42964;SDS011;28604;51.204;22.552;2024-02-23T10:21:14;4.65;;;2.58;;
42964;SDS011;28604;51.204;22.552;2024-02-23T10:23:41;4.75;;;3.15;;
42964;SDS011;28604;51.204;22.552;2024-02-23T10:26:09;3.47;;;2.80;;
42964;SDS011;28604;51.204;22.552;2024-02-23T10:28:36;4.25;;;3.25;;
42964;SDS011;28604;51.204;22.552;2024-02-23T10:31:05;3.38;;;3.03;;
42964;SDS011;28604;51.204;22.552;2024-02-23T10:33:32;2.60;;;2.50;;
42964;SDS011;28604;51.204;22.552;2024-02-23T10:35:58;3.67;;;2.92;;
42964;SDS011;28604;51.204;22.552;2024-02-23T10:38:26;4.90;;;3.05;;
42964;SDS011;28604;51.204;22.552;2024-02-23T10:40:57;3.42;;;3.13;;
42964;SDS011;28604;51.204;22.552;2024-02-23T10:43:30;3.40;;;3.10;;
42964;SDS011;28604;51.204;22.552;2024-02-23T10:46:03;3.63;;;2.92;;
42964;SDS011;28604;51.204;22.552;2024-02-23T10:48:33;2.65;;;2.45;;
42964;SDS011;28604;51.204;22.552;2024-02-23T10:51:01;2.88;;;2.67;;
42964;SDS011;28604;51.204;22.552;2024-02-23T10:53:31;3.35;;;3.00;;
42964;SDS011;28604;51.204;22.552;2024-02-23T10:55:57;2.78;;;2.47;;
42964;SDS011;28604;51.204;22.552;2024-02-23T10:58:24;3.78;;;2.83;;
42964;SDS011;28604;51.204;22.552;2024-02-23T11:00:50;2.42;;;2.20;;
42964;SDS011;28604;51.204;22.552;2024-02-23T11:03:17;2.58;;;2.47;;
42964;SDS011;28604;51.204;22.552;2024-02-23T11:05:47;2.70;;;2.50;;
42964;SDS011;28604;51.204;22.552;2024-02-23T11:08:17;5.03;;;2.60;;
42964;SDS011;28604;51.204;22.552;2024-02-23T11:10:51;3.38;;;3.08;;
42964;SDS011;28604;51.204;22.552;2024-02-23T11:13:17;3.60;;;3.30;;
42964;SDS011;28604;51.204;22.552;2024-02-23T11:15:43;3.33;;;3.03;;
42964;SDS011;28604;51.204;22.552;2024-02-23T11:18:22;3.78;;;2.63;;
42964;SDS011;28604;51.204;22.552;2024-02-23T11:20:55;4.35;;;2.95;;
42964;SDS011;28604;51.204;22.552;2024-02-23T11:23:24;3.45;;;2.58;;
42964;SDS011;28604;51.204;22.552;2024-02-23T11:28:51;2.55;;;2.45;;
42964;SDS011;28604;51.204;22.552;2024-02-23T11:31:21;2.25;;;2.00;;
42964;SDS011;28604;51.204;22.552;2024-02-23T11:33:55;2.78;;;2.30;;
42964;SDS011;28604;51.204;22.552;2024-02-23T11:36:43;3.45;;;2.78;;
42964;SDS011;28604;51.204;22.552;2024-02-23T11:39:08;2.90;;;2.38;;
42964;SDS011;28604;51.204;22.552;2024-02-23T11:41:38;2.25;;;2.05;;
42964;SDS011;28604;51.204;22.552;2024-02-23T11:44:05;2.53;;;2.33;;
42964;SDS011;28604;51.204;22.552;2024-02-23T11:46:32;2.50;;;2.30;;
42964;SDS011;28604;51.204;22.552;2024-02-23T11:48:58;3.95;;;2.20;;
42964;SDS011;28604;51.204;22.552;2024-02-23T11:51:25;4.68;;;2.25;;
42964;SDS011;28604;51.204;22.552;2024-02-23T11:53:55;2.45;;;2.25;;
42964;SDS011;28604;51.204;22.552;2024-02-23T11:56:25;3.40;;;2.30;;
42964;SDS011;28604;51.204;22.552;2024-02-23T11:58:53;4.22;;;1.77;;
42964;SDS011;28604;51.204;22.552;2024-02-23T12:01:20;2.00;;;1.77;;
42964;SDS011;28604;51.204;22.552;2024-02-23T12:03:47;1.90;;;1.80;;
42964;SDS011;28604;51.204;22.552;2024-02-23T12:06:14;2.45;;;2.25;;
42964;SDS011;28604;51.204;22.552;2024-02-23T12:08:43;2.25;;;1.92;;
42964;SDS011;28604;51.204;22.552;2024-02-23T12:11:11;2.03;;;1.92;;
42964;SDS011;28604;51.204;22.552;2024-02-23T12:13:39;2.05;;;1.88;;
42964;SDS011;28604;51.204;22.552;2024-02-23T12:16:07;1.80;;;1.67;;
42964;SDS011;28604;51.204;22.552;2024-02-23T12:18:33;5.57;;;2.35;;
42964;SDS011;28604;51.204;22.552;2024-02-23T12:21:00;3.50;;;2.00;;
42964;SDS011;28604;51.204;22.552;2024-02-23T12:23:37;5.68;;;3.22;;
42964;SDS011;28604;51.204;22.552;2024-02-23T12:26:07;10.52;;;2.00;;
42964;SDS011;28604;51.204;22.552;2024-02-23T12:28:34;4.13;;;2.60;;
42964;SDS011;28604;51.204;22.552;2024-02-23T12:31:00;2.13;;;1.92;;
42964;SDS011;28604;51.204;22.552;2024-02-23T12:33:34;2.75;;;2.55;;
42964;SDS011;28604;51.204;22.552;2024-02-23T12:36:01;3.10;;;2.30;;
42964;SDS011;28604;51.204;22.552;2024-02-23T12:38:29;2.33;;;2.15;;
42964;SDS011;28604;51.204;22.552;2024-02-23T12:40:55;6.43;;;2.38;;
42964;SDS011;28604;51.204;22.552;2024-02-23T12:43:21;4.63;;;2.53;;
42964;SDS011;28604;51.204;22.552;2024-02-23T12:45:52;2.33;;;2.13;;
42964;SDS011;28604;51.204;22.552;2024-02-23T12:48:20;1.98;;;1.90;;
42964;SDS011;28604;51.204;22.552;2024-02-23T12:50:46;2.05;;;1.85;;
42964;SDS011;28604;51.204;22.552;2024-02-23T12:53:59;2.00;;;1.90;;
42964;SDS011;28604;51.204;22.552;2024-02-23T12:56:03;2.35;;;2.05;;
42964;SDS011;28604;51.204;22.552;2024-02-23T12:58:31;1.95;;;1.83;;
42964;SDS011;28604;51.204;22.552;2024-02-23T13:00:57;2.22;;;2.03;;
42964;SDS011;28604;51.204;22.552;2024-02-23T13:03:24;2.30;;;2.15;;
42964;SDS011;28604;51.204;22.552;2024-02-23T13:05:51;1.80;;;1.70;;
42964;SDS011;28604;51.204;22.552;2024-02-23T13:08:18;2.75;;;2.03;;
42964;SDS011;28604;51.204;22.552;2024-02-23T13:10:44;2.65;;;2.10;;
42964;SDS011;28604;51.204;22.552;2024-02-23T13:13:11;1.98;;;1.88;;
42964;SDS011;28604;51.204;22.552;2024-02-23T13:15:38;2.58;;;2.38;;
42964;SDS011;28604;51.204;22.552;2024-02-23T13:18:04;2.28;;;2.10;;
42964;SDS011;28604;51.204;22.552;2024-02-23T13:20:31;2.58;;;2.38;;
42964;SDS011;28604;51.204;22.552;2024-02-23T13:22:57;2.03;;;1.92;;
42964;SDS011;28604;51.204;22.552;2024-02-23T13:25:23;2.63;;;2.42;;
42964;SDS011;28604;51.204;22.552;2024-02-23T13:27:49;3.95;;;2.67;;
42964;SDS011;28604;51.204;22.552;2024-02-23T13:30:15;2.40;;;2.30;;
42964;SDS011;28604;51.204;22.552;2024-02-23T13:32:41;2.38;;;2.13;;
42964;SDS011;28604;51.204;22.552;2024-02-23T13:35:08;3.88;;;2.50;;
42964;SDS011;28604;51.204;22.552;2024-02-23T13:37:34;3.92;;;2.30;;
42964;SDS011;28604;51.204;22.552;2024-02-23T13:40:00;2.75;;;2.15;;
42964;SDS011;28604;51.204;22.552;2024-02-23T13:42:27;2.85;;;2.33;;
42964;SDS011;28604;51.204;22.552;2024-02-23T13:44:53;2.83;;;1.65;;
42964;SDS011;28604;51.204;22.552;2024-02-23T13:47:19;3.50;;;2.53;;
42964;SDS011;28604;51.204;22.552;2024-02-23T13:49:45;3.17;;;2.75;;
42964;SDS011;28604;51.204;22.552;2024-02-23T13:52:11;2.97;;;2.03;;
42964;SDS011;28604;51.204;22.552;2024-02-23T13:54:37;2.03;;;1.92;;
42964;SDS011;28604;51.204;22.552;2024-02-23T13:57:03;3.45;;;2.65;;
42964;SDS011;28604;51.204;22.552;2024-02-23T13:59:29;2.47;;;2.20;;
42964;SDS011;28604;51.204;22.552;2024-02-23T14:01:55;4.97;;;3.10;;
42964;SDS011;28604;51.204;22.552;2024-02-23T14:04:22;3.35;;;2.30;;
42964;SDS011;28604;51.204;22.552;2024-02-23T14:06:47;2.90;;;2.28;;
42964;SDS011;28604;51.204;22.552;2024-02-23T14:09:13;2.53;;;2.33;;
42964;SDS011;28604;51.204;22.552;2024-02-23T14:11:40;3.28;;;2.40;;
42964;SDS011;28604;51.204;22.552;2024-02-23T14:14:06;3.03;;;2.83;;
42964;SDS011;28604;51.204;22.552;2024-02-23T14:16:33;2.95;;;2.42;;
42964;SDS011;28604;51.204;22.552;2024-02-23T14:19:00;2.58;;;2.38;;
42964;SDS011;28604;51.204;22.552;2024-02-23T14:21:26;2.50;;;2.30;;
42964;SDS011;28604;51.204;22.552;2024-02-23T14:23:52;2.47;;;2.13;;
42964;SDS011;28604;51.204;22.552;2024-02-23T14:26:18;2.58;;;2.47;;
42964;SDS011;28604;51.204;22.552;2024-02-23T14:28:44;3.45;;;2.90;;
42964;SDS011;28604;51.204;22.552;2024-02-23T14:31:10;3.15;;;2.75;;
42964;SDS011;28604;51.204;22.552;2024-02-23T14:33:36;5.22;;;3.10;;